| time (UTC) | temp C | wind direction | speed KPH | gust KPH | rain 1hr cm | rain 24hr cm | rain mn cm | humidity % | barometer mb |
| 20260510230053 | 24 | 360 | 6.4 | 19.3 | 0.00 | 0.00 | 0.00 | 23 | 1023.0 |
| 20260510224603 | 24 | 360 | 4.8 | 17.7 | 0.00 | 0.00 | 0.00 | 22 | 1023.1 |
| 20260510223111 | 25 | 360 | 8.0 | 19.3 | 0.00 | 0.00 | 0.00 | 22 | 1023.3 |
| 20260510221557 | 24 | 360 | 11.3 | 24.1 | 0.00 | 0.00 | 0.00 | 23 | 1023.2 |
| 20260510220056 | 24 | 360 | 3.2 | 17.7 | 0.00 | 0.00 | 0.00 | 23 | 1023.5 |
| 20260510214601 | 24 | 360 | 6.4 | 17.7 | 0.00 | 0.00 | 0.00 | 23 | 1023.5 |
| 20260510213052 | 24 | 360 | 11.3 | 20.9 | 0.00 | 0.00 | 0.00 | 23 | 1023.7 |
| 20260510211602 | 24 | 360 | 6.4 | 24.1 | 0.00 | 0.00 | 0.00 | 23 | 1023.9 |
| 20260510210057 | 25 | 360 | 4.8 | 14.5 | 0.00 | 0.00 | 0.00 | 23 | 1023.9 |
| 20260510204559 | 25 | 360 | 9.7 | 20.9 | 0.00 | 0.00 | 0.00 | 23 | 1024.1 |
| 20260510203055 | 25 | 360 | 11.3 | 25.7 | 0.00 | 0.00 | 0.00 | 22 | 1024.2 |
| 20260510201555 | 25 | 233 | 6.4 | 29.0 | 0.00 | 0.00 | 0.00 | 23 | 1024.2 |
| 20260510200052 | 25 | 322 | 1.6 | 11.3 | 0.00 | 0.00 | 0.00 | 23 | 1024.4 |
| 20260510194547 | 25 | 312 | 9.7 | 25.7 | 0.00 | 0.00 | 0.00 | 23 | 1024.6 |
| 20260510193053 | 25 | 266 | 3.2 | 19.3 | 0.00 | 0.00 | 0.00 | 22 | 1024.7 |
| 20260510191550 | 24 | 228 | 11.3 | 25.7 | 0.00 | 0.00 | 0.00 | 22 | 1024.9 |
| 20260510190048 | 24 | 88 | 6.4 | 24.1 | 0.00 | 0.00 | 0.00 | 23 | 1025.2 |
| 20260510184557 | 24 | 360 | 1.6 | 9.7 | 0.00 | 0.00 | 0.00 | 24 | 1025.5 |
| 20260510183052 | 23 | 360 | 8.0 | 22.5 | 0.00 | 0.00 | 0.00 | 26 | 1025.7 |
| 20260510181601 | 23 | 360 | 9.7 | 19.3 | 0.00 | 0.00 | 0.00 | 25 | 1025.8 |
| 20260510180107 | 23 | 39 | 0.0 | 11.3 | 0.00 | 0.00 | 0.00 | 25 | 1026.0 |
| 20260510174558 | 22 | 30 | 6.4 | 12.9 | 0.00 | 0.00 | 0.00 | 26 | 1026.1 |
| 20260510173056 | 22 | 360 | 6.4 | 16.1 | 0.00 | 0.00 | 0.00 | 25 | 1026.2 |
| 20260510171601 | 22 | 360 | 6.4 | 14.5 | 0.00 | 0.00 | 0.00 | 25 | 1026.2 |
| 20260510170114 | 22 | 360 | 3.2 | 11.3 | 0.00 | 0.00 | 0.00 | 27 | 1026.3 |
| 20260510164603 | 21 | 0 | 4.8 | 14.5 | 0.00 | 0.00 | 0.00 | 27 | 1026.4 |
| 20260510163049 | 21 | 360 | 4.8 | 12.9 | 0.00 | 0.00 | 0.00 | 26 | 1026.3 |
| 20260510161550 | 21 | 0 | 1.6 | 14.5 | 0.00 | 0.00 | 0.00 | 30 | 1026.3 |
| 20260510160051 | 20 | 360 | 1.6 | 11.3 | 0.00 | 0.00 | 0.00 | 31 | 1026.4 |
| 20260510154550 | 20 | 0 | 4.8 | 11.3 | 0.00 | 0.00 | 0.00 | 32 | 1026.3 |
| 20260510153053 | 19 | 234 | 3.2 | 12.9 | 0.00 | 0.00 | 0.00 | 35 | 1026.2 |
| 20260510151552 | 18 | 215 | 6.4 | 12.9 | 0.00 | 0.00 | 0.00 | 36 | 1026.0 |
| 20260510150052 | 18 | 360 | 4.8 | 12.9 | 0.00 | 0.00 | 0.00 | 37 | 1025.9 |
| 20260510144552 | 17 | 360 | 6.4 | 14.5 | 0.00 | 0.00 | 0.00 | 38 | 1025.9 |
| 20260510143058 | 17 | 360 | 6.4 | 14.5 | 0.00 | 0.00 | 0.00 | 39 | 1025.9 |
| 20260510141553 | 16 | 360 | 4.8 | 9.7 | 0.00 | 0.00 | 0.00 | 39 | 1025.7 |
| 20260510140054 | 16 | 360 | 3.2 | 8.0 | 0.00 | 0.00 | 0.00 | 41 | 1025.7 |
| 20260510134556 | 16 | 242 | 1.6 | 9.7 | 0.00 | 0.00 | 0.00 | 41 | 1025.6 |
| 20260510133051 | 16 | 268 | 3.2 | 9.7 | 0.00 | 0.00 | 0.00 | 42 | 1025.5 |
| 20260510131549 | 16 | 291 | 1.6 | 6.4 | 0.00 | 0.00 | 0.00 | 42 | 1025.2 |
| 20260510130050 | 15 | 0 | 0.0 | 6.4 | 0.00 | 0.00 | 0.00 | 42 | 1024.9 |
| 20260510124604 | 15 | 291 | 1.6 | 11.3 | 0.00 | 0.00 | 0.00 | 42 | 1024.7 |
| 20260510123053 | 16 | 285 | 3.2 | 11.3 | 0.00 | 0.00 | 0.00 | 42 | 1024.5 |
| 20260510121555 | 16 | 260 | 1.6 | 11.3 | 0.00 | 0.00 | 0.00 | 40 | 1024.4 |
| 20260510120051 | 16 | 226 | 3.2 | 8.0 | 0.00 | 0.00 | 0.00 | 41 | 1024.2 |
| 20260510114552 | 16 | 218 | 1.6 | 8.0 | 0.00 | 0.00 | 0.00 | 41 | 1024.0 |
| 20260510113053 | 16 | 218 | 3.2 | 8.0 | 0.00 | 0.00 | 0.00 | 41 | 1024.1 |
| 20260510111555 | 16 | 218 | 3.2 | 8.0 | 0.00 | 0.00 | 0.00 | 42 | 1024.2 |
| 20260510110052 | 15 | 217 | 3.2 | 9.7 | 0.00 | 0.00 | 0.00 | 42 | 1024.2 |
| 20260510104555 | 15 | 219 | 4.8 | 11.3 | 0.00 | 0.00 | 0.00 | 41 | 1024.1 |
| 20260510103100 | 15 | 223 | 6.4 | 9.7 | 0.00 | 0.00 | 0.00 | 42 | 1024.0 |
| 20260510101551 | 15 | 236 | 4.8 | 8.0 | 0.00 | 0.00 | 0.00 | 41 | 1023.8 |
| 20260510100101 | 16 | 239 | 1.6 | 11.3 | 0.00 | 0.00 | 0.00 | 40 | 1023.8 |
| 20260510094601 | 16 | 219 | 3.2 | 8.0 | 0.00 | 0.00 | 0.00 | 40 | 1023.7 |
| 20260510093055 | 16 | 219 | 3.2 | 6.4 | 0.00 | 0.00 | 0.00 | 40 | 1023.6 |
| 20260510091549 | 16 | 219 | 3.2 | 9.7 | 0.00 | 0.00 | 0.00 | 40 | 1023.7 |
| 20260510090050 | 16 | 205 | 6.4 | 11.3 | 0.00 | 0.00 | 0.00 | 39 | 1023.7 |
| 20260510084550 | 16 | 220 | 3.2 | 9.7 | 0.00 | 0.00 | 0.00 | 38 | 1023.8 |
| 20260510083059 | 16 | 229 | 3.2 | 11.3 | 0.00 | 0.00 | 0.00 | 37 | 1023.9 |
| 20260510081553 | 17 | 212 | 6.4 | 12.9 | 0.00 | 0.00 | 0.00 | 36 | 1024.0 |
| 20260510080053 | 17 | 222 | 4.8 | 12.9 | 0.00 | 0.00 | 0.00 | 36 | 1024.1 |
| 20260510074556 | 17 | 216 | 6.4 | 14.5 | 0.00 | 0.00 | 0.00 | 35 | 1024.3 |
| 20260510073106 | 17 | 229 | 3.2 | 9.7 | 0.00 | 0.00 | 0.00 | 35 | 1024.4 |
| 20260510071552 | 18 | 238 | 3.2 | 11.3 | 0.00 | 0.00 | 0.00 | 35 | 1024.4 |
| 20260510070054 | 18 | 236 | 3.2 | 11.3 | 0.00 | 0.00 | 0.00 | 35 | 1024.6 |
| 20260510064558 | 18 | 223 | 4.8 | 12.9 | 0.00 | 0.00 | 0.00 | 35 | 1024.6 |
| 20260510063054 | 18 | 219 | 6.4 | 12.9 | 0.00 | 0.00 | 0.00 | 35 | 1024.8 |
| 20260510061555 | 18 | 225 | 6.4 | 12.9 | 0.00 | 0.00 | 0.00 | 35 | 1024.8 |
| 20260510060055 | 18 | 242 | 4.8 | 12.9 | 0.00 | 0.00 | 0.00 | 34 | 1024.9 |
| 20260510054554 | 18 | 311 | 1.6 | 6.4 | 0.00 | 0.00 | 0.00 | 35 | 1025.1 |
| 20260510053053 | 18 | 319 | 3.2 | 8.0 | 0.00 | 0.00 | 0.00 | 35 | 1025.1 |
| 20260510051556 | 18 | 326 | 1.6 | 8.0 | 0.00 | 0.00 | 0.00 | 35 | 1025.2 |
| 20260510050052 | 18 | 318 | 1.6 | 8.0 | 0.00 | 0.00 | 0.00 | 36 | 1025.3 |
| 20260510044554 | 19 | 334 | 4.8 | 11.3 | 0.00 | 0.00 | 0.00 | 36 | 1025.2 |
| 20260510043054 | 19 | 360 | 3.2 | 14.5 | 0.00 | 0.00 | 0.00 | 36 | 1024.9 |
| 20260510041553 | 19 | 360 | 4.8 | 16.1 | 0.00 | 0.00 | 0.00 | 36 | 1024.7 |
| 20260510040058 | 20 | 360 | 8.0 | 16.1 | 0.00 | 0.00 | 0.00 | 35 | 1024.5 |
| 20260510034549 | 20 | 360 | 8.0 | 17.7 | 0.00 | 0.00 | 0.00 | 34 | 1024.4 |
| 20260510033057 | 20 | 360 | 8.0 | 19.3 | 0.00 | 0.00 | 0.00 | 33 | 1024.1 |
| 20260510031550 | 20 | 360 | 11.3 | 17.7 | 0.00 | 0.00 | 0.00 | 33 | 1023.8 |
| 20260510030050 | 20 | 360 | 11.3 | 17.7 | 0.00 | 0.00 | 0.00 | 33 | 1023.7 |
| 20260510024549 | 20 | 360 | 9.7 | 24.1 | 0.00 | 0.00 | 0.00 | 32 | 1023.5 |
| 20260510023048 | 21 | 360 | 9.7 | 16.1 | 0.00 | 0.00 | 0.00 | 30 | 1023.2 |
| 20260510021549 | 21 | 360 | 4.8 | 16.1 | 0.00 | 0.00 | 0.00 | 30 | 1023.1 |
| 20260510020047 | 21 | 360 | 4.8 | 14.5 | 0.00 | 0.00 | 0.00 | 29 | 1022.8 |
| 20260510014553 | 22 | 360 | 8.0 | 16.1 | 0.00 | 0.00 | 0.00 | 29 | 1022.5 |
| 20260510013049 | 22 | 360 | 8.0 | 17.7 | 0.00 | 0.00 | 0.00 | 28 | 1022.4 |
| 20260510011550 | 22 | 360 | 9.7 | 16.1 | 0.00 | 0.00 | 0.00 | 27 | 1022.2 |
| 20260510010049 | 22 | 360 | 6.4 | 20.9 | 0.00 | 0.00 | 0.00 | 26 | 1022.0 |
| 20260510004551 | 23 | 360 | 8.0 | 17.7 | 0.00 | 0.00 | 0.00 | 25 | 1021.6 |
| 20260510003103 | 23 | 360 | 8.0 | 17.7 | 0.00 | 0.00 | 0.00 | 21 | 1021.6 |
| 20260510001552 | 24 | 360 | 3.2 | 17.7 | 0.00 | 0.00 | 0.00 | 21 | 1021.5 |
| 20260510000055 | 24 | 360 | 4.8 | 19.3 | 0.00 | 0.00 | 0.00 | 21 | 1021.2 |
| 20260509234559 | 24 | 360 | 4.8 | 20.9 | 0.00 | 0.00 | 0.00 | 22 | 1021.1 |
| 20260509233049 | 24 | 360 | 11.3 | 24.1 | 0.00 | 0.00 | 0.00 | 21 | 1021.0 |
| 20260509231556 | 24 | 252 | 3.2 | 12.9 | 0.00 | 0.00 | 0.00 | 23 | 1020.9 |